createdAt,value
2023-02-19T00:01:19.021Z,73.4
2023-02-19T00:03:21.029Z,82
2023-02-19T00:05:22.991Z,49.6
2023-02-19T00:07:24.962Z,55.2
2023-02-19T00:09:29.998Z,67.7
2023-02-19T00:11:31.972Z,56.6
2023-02-19T00:13:33.954Z,52.6
2023-02-19T00:15:36.009Z,46
2023-02-19T00:17:37.938Z,65.2
2023-02-19T00:21:41.902Z,68.9
2023-02-19T00:23:46.933Z,58.5
2023-02-19T00:25:48.906Z,36.9
2023-02-19T00:27:50.898Z,49.2
2023-02-19T00:30:07.934Z,37.2
2023-02-19T00:32:09.932Z,72.3
2023-02-19T00:34:11.826Z,54.2
2023-02-19T00:38:18.856Z,42.3
2023-02-19T00:40:20.823Z,55.5
2023-02-19T00:42:22.821Z,43.7
2023-02-19T00:44:24.777Z,49.7
2023-02-19T00:46:26.936Z,69
2023-02-19T00:48:28.745Z,44
2023-02-19T00:50:33.782Z,34.3
2023-02-19T00:52:35.763Z,39.4
2023-02-19T00:54:37.743Z,42.6
2023-02-19T00:58:41.740Z,40.6
2023-02-19T01:00:43.687Z,38.5
2023-02-19T01:02:45.661Z,60.6
2023-02-19T01:04:50.749Z,36.9
2023-02-19T01:06:54.233Z,24.1
2023-02-19T01:08:56.220Z,34.5
2023-02-19T01:10:58.148Z,39.5
2023-02-19T01:13:00.136Z,43.1
2023-02-19T01:15:02.129Z,28.4
2023-02-19T01:17:04.099Z,38.7
2023-02-19T01:21:11.465Z,24.9
2023-02-19T01:23:13.100Z,22
2023-02-19T01:24:15.623Z,37.9
2023-02-19T01:26:17.609Z,19.4
2023-02-19T01:28:19.567Z,23.1
2023-02-19T01:30:21.592Z,21.5
2023-02-19T01:32:26.574Z,32.7
2023-02-19T01:34:28.573Z,29.8
2023-02-19T01:36:30.538Z,30.1
2023-02-19T01:38:32.522Z,27.3
2023-02-19T01:40:34.509Z,23.4
2023-02-19T01:42:36.495Z,27.1
2023-02-19T01:44:38.464Z,27.2
2023-02-19T01:48:45.498Z,25.1
2023-02-19T01:50:47.481Z,38.4
2023-02-19T01:52:49.464Z,23.4
2023-02-19T01:54:51.433Z,15.5
2023-02-19T01:56:53.421Z,22.1
2023-02-19T01:58:55.434Z,23.9
2023-02-19T02:01:00.501Z,15.7
2023-02-19T02:03:02.406Z,36.3
2023-02-19T02:05:04.391Z,32.3
2023-02-19T02:07:06.390Z,26.8
2023-02-19T02:09:08.351Z,34.9
2023-02-19T02:11:10.614Z,13.1
2023-02-19T02:13:12.311Z,21
2023-02-19T02:15:17.361Z,22.1
2023-02-19T02:17:19.332Z,25.7
2023-02-19T02:19:21.336Z,36.2
2023-02-19T02:20:23.823Z,25.1
2023-02-19T02:24:27.770Z,51
2023-02-19T02:26:29.737Z,22.2
2023-02-19T02:28:34.774Z,30.6
2023-02-19T02:30:36.742Z,35
2023-02-19T02:32:38.734Z,35.7
2023-02-19T02:34:40.710Z,26.2
2023-02-19T02:36:42.685Z,26.9
2023-02-19T02:38:44.667Z,41.2
2023-02-19T02:40:46.657Z,27.2
2023-02-19T02:42:51.687Z,44.8
2023-02-19T02:44:53.668Z,54
2023-02-19T02:46:55.637Z,22.9
2023-02-19T02:48:57.607Z,35.7
2023-02-19T02:50:59.619Z,33.5
2023-02-19T02:53:01.572Z,33.8
2023-02-19T02:55:03.557Z,30.8
2023-02-19T02:57:08.586Z,38.7
2023-02-19T02:59:10.590Z,20
2023-02-19T03:01:13.030Z,27.9
2023-02-19T03:03:14.502Z,37.5
2023-02-19T03:05:16.484Z,34.5
2023-02-19T03:07:18.457Z,28.2
2023-02-19T03:11:25.516Z,38.5
2023-02-19T03:13:27.472Z,23.3
2023-02-19T03:15:29.454Z,22.5
2023-02-19T03:18:33.951Z,32.7
2023-02-19T03:20:35.917Z,31.5
2023-02-19T03:22:37.919Z,43.2
2023-02-19T03:24:42.942Z,40.1
2023-02-19T03:26:44.924Z,28
2023-02-19T03:28:46.893Z,25.8
2023-02-19T03:30:48.876Z,22.6
2023-02-19T03:32:50.853Z,27.7
2023-02-19T03:34:52.836Z,25.1
2023-02-19T03:36:54.841Z,23.3
2023-02-19T03:41:01.806Z,43.3
2023-02-19T03:43:03.786Z,31.9
2023-02-19T03:45:05.756Z,25.5
2023-02-19T03:47:07.816Z,36.2
2023-02-19T03:49:09.735Z,32.8
2023-02-19T03:51:11.972Z,36.3
2023-02-19T03:53:16.743Z,37.6
2023-02-19T03:55:18.728Z,38.5
2023-02-19T03:59:22.662Z,28.5
2023-02-19T04:01:24.641Z,29.1
2023-02-19T04:03:26.623Z,47.9
2023-02-19T04:05:28.606Z,34.2
2023-02-19T04:07:33.630Z,30.5
2023-02-19T04:09:35.622Z,33.9
2023-02-19T04:11:37.594Z,30.5
2023-02-19T04:16:02.112Z,36.1
2023-02-19T04:20:09.148Z,36.5
2023-02-19T04:24:13.086Z,32.4
2023-02-19T04:28:17.047Z,40.6
2023-02-19T04:30:19.018Z,28.4
2023-02-19T04:40:31.930Z,33.9
2023-02-19T04:42:33.898Z,26.2
2023-02-19T04:44:35.867Z,20.3
2023-02-19T04:46:37.859Z,24.2
2023-02-19T04:48:42.882Z,26.4
2023-02-19T04:50:44.840Z,22.6
2023-02-19T04:52:46.819Z,35.6
2023-02-19T04:54:48.796Z,30.5
2023-02-19T04:56:50.780Z,36
2023-02-19T04:58:52.745Z,24.4
2023-02-19T05:00:54.719Z,27.7
2023-02-19T05:02:59.746Z,13.9
2023-02-19T05:05:01.742Z,29.4
2023-02-19T05:07:03.688Z,30.9
2023-02-19T05:08:06.212Z,38.5
2023-02-19T05:10:08.188Z,29.6
2023-02-19T05:12:10.164Z,22.8
2023-02-19T05:14:12.124Z,42
2023-02-19T05:16:17.172Z,26.5
2023-02-19T05:18:19.128Z,25.5
2023-02-19T05:20:21.105Z,21.3
2023-02-19T05:22:23.073Z,30
2023-02-19T05:24:25.100Z,36.3
2023-02-19T05:26:27.082Z,19.4
2023-02-19T05:28:29.125Z,23.7
2023-02-19T05:30:34.218Z,51.7
2023-02-19T05:32:36.022Z,35.1
2023-02-19T05:34:38.008Z,22.8
2023-02-19T05:38:42.152Z,21.9
2023-02-19T05:40:44.112Z,16.1
2023-02-19T05:44:51.117Z,32.2
2023-02-19T05:46:53.100Z,27.6
2023-02-19T05:48:55.085Z,16.3
2023-02-19T05:50:57.083Z,26.6
2023-02-19T05:52:59.073Z,27.1
2023-02-19T05:55:01.041Z,32.8
2023-02-19T05:57:03.006Z,47.4
2023-02-19T05:59:08.014Z,27.9
2023-02-19T06:01:10.240Z,24.1
2023-02-19T06:03:11.983Z,41.6
2023-02-19T06:04:14.470Z,33.1
2023-02-19T06:06:16.438Z,31.7
2023-02-19T06:08:18.406Z,24.7
2023-02-19T06:10:20.368Z,37.6
2023-02-19T06:12:25.379Z,25.7
2023-02-19T06:14:27.388Z,29.4
2023-02-19T06:16:29.385Z,25.3
2023-02-19T06:18:31.298Z,27.6
2023-02-19T06:20:33.293Z,25
2023-02-19T06:22:35.255Z,28.8
2023-02-19T06:24:37.214Z,22.3
2023-02-19T06:26:42.255Z,23
2023-02-19T06:28:44.216Z,14.8
2023-02-19T06:30:46.171Z,16.5
2023-02-19T06:32:48.155Z,28.2
2023-02-19T06:34:50.116Z,27.1
2023-02-19T06:36:52.109Z,12.8
2023-02-19T06:38:54.070Z,20.3
2023-02-19T06:40:59.098Z,33.2
2023-02-19T06:45:03.038Z,33.2
2023-02-19T06:47:05.008Z,29.3
2023-02-19T06:49:06.979Z,13
2023-02-19T06:51:09.184Z,16.3
2023-02-19T06:53:10.933Z,24.8
2023-02-19T06:55:15.955Z,24.9
2023-02-19T06:57:17.924Z,21.5
2023-02-19T06:59:21.434Z,19.4
2023-02-19T07:00:23.917Z,33.5
2023-02-19T07:02:25.889Z,19.2
2023-02-19T07:04:27.930Z,14.7
2023-02-19T07:06:29.812Z,20.1
2023-02-19T07:08:34.853Z,29.1
2023-02-19T07:10:36.816Z,30.2
2023-02-19T07:12:38.788Z,27.4
2023-02-19T07:22:51.687Z,30.7
2023-02-19T07:24:53.659Z,33.3
2023-02-19T07:33:01.558Z,30.2
2023-02-19T07:35:03.504Z,16.7
2023-02-19T07:37:08.534Z,17.8
2023-02-19T07:41:12.790Z,25.6
2023-02-19T07:43:14.436Z,31
2023-02-19T07:45:16.412Z,21.7
2023-02-19T07:47:18.360Z,23.4
2023-02-19T07:53:27.330Z,19.2
2023-02-19T07:55:29.312Z,15.9
2023-02-19T07:57:52.157Z,12.4
2023-02-19T07:59:54.108Z,19.1
2023-02-19T08:01:56.073Z,26
2023-02-19T08:06:03.053Z,29.7
2023-02-19T08:08:05.026Z,17.5
2023-02-19T08:10:07.047Z,17.2
2023-02-19T08:12:08.947Z,14
2023-02-19T08:16:18.683Z,28.8
2023-02-19T08:18:17.883Z,16.4
2023-02-19T08:20:19.867Z,20
2023-02-19T08:22:21.827Z,20.9
2023-02-19T08:28:27.730Z,16
2023-02-19T08:32:34.732Z,33.3
2023-02-19T08:40:42.605Z,16.1
2023-02-19T08:46:51.560Z,26.5
2023-02-19T08:48:53.527Z,16
2023-02-19T08:50:55.488Z,24.1
2023-02-19T08:51:58.015Z,11.2
2023-02-19T08:56:01.920Z,21.8
2023-02-19T08:58:03.907Z,21.9
2023-02-19T09:00:09.729Z,12.1
2023-02-19T09:02:11.714Z,15.8
2023-02-19T09:04:13.722Z,19.7
2023-02-19T09:08:17.596Z,11.1
2023-02-19T09:12:21.524Z,14.1
2023-02-19T09:14:26.565Z,16.2
2023-02-19T09:20:32.464Z,17.5
2023-02-19T09:22:34.444Z,13.5
2023-02-19T09:24:36.408Z,17.8
2023-02-19T09:26:38.753Z,8.2
2023-02-19T09:28:43.413Z,10
2023-02-19T09:30:45.425Z,13.4
2023-02-19T09:32:47.348Z,10
2023-02-19T09:34:49.305Z,28.7
2023-02-19T09:38:53.240Z,14
2023-02-19T09:40:55.210Z,18.9
2023-02-19T09:43:01.633Z,14.7
2023-02-19T09:45:02.177Z,17.8
2023-02-19T09:48:06.668Z,14.1
2023-02-19T09:50:08.615Z,13.2
2023-02-19T09:52:10.582Z,11.4
2023-02-19T09:54:12.558Z,16.3
2023-02-19T09:58:19.528Z,11
2023-02-19T10:00:21.494Z,8.6
2023-02-19T10:02:23.433Z,10.1
2023-02-19T10:06:27.391Z,11.7
2023-02-19T10:10:34.355Z,8.4
2023-02-19T10:12:36.308Z,11.5
2023-02-19T10:14:38.272Z,11.2
2023-02-19T10:18:42.302Z,16.2
2023-02-19T10:20:44.201Z,15
2023-02-19T10:22:46.181Z,11.6
2023-02-19T10:24:51.211Z,29.5
2023-02-19T10:26:53.128Z,12.8
2023-02-19T10:28:55.097Z,9.6
2023-02-19T10:30:57.085Z,11.2
2023-02-19T10:32:59.026Z,12
2023-02-19T10:35:00.996Z,15
2023-02-19T10:37:02.933Z,8.5
2023-02-19T10:43:11.875Z,8.7
2023-02-19T10:44:14.383Z,9.6
2023-02-19T10:46:16.381Z,19.4
2023-02-19T10:48:18.292Z,15.7
2023-02-19T10:50:20.244Z,40.3
2023-02-19T10:52:25.291Z,9.1
2023-02-19T10:54:27.237Z,28.8
2023-02-19T10:56:29.200Z,9.2
2023-02-19T10:58:31.162Z,7.6
2023-02-19T11:00:33.105Z,9.6
2023-02-19T11:02:35.067Z,20.6
2023-02-19T11:04:37.083Z,7.9
2023-02-19T11:06:42.047Z,6.9
2023-02-19T11:08:44.052Z,7
2023-02-19T11:10:45.947Z,8
2023-02-19T11:12:47.932Z,7.3
2023-02-19T11:14:49.880Z,10.1
2023-02-19T11:16:51.826Z,11.6
2023-02-19T11:20:58.819Z,7.2
2023-02-19T11:23:00.781Z,4.8
2023-02-19T11:25:02.752Z,10.1
2023-02-19T11:27:04.720Z,8.1
2023-02-19T11:29:06.664Z,7.2
2023-02-19T11:31:08.821Z,6
2023-02-19T11:35:15.613Z,10.1
2023-02-19T11:37:17.594Z,8.2
2023-02-19T11:49:52.368Z,9.2
2023-02-19T11:51:54.322Z,9.2
2023-02-19T12:00:02.206Z,46.6
2023-02-19T12:08:13.133Z,10
2023-02-19T12:10:15.096Z,11.3
2023-02-19T12:12:17.058Z,9.7
2023-02-19T12:14:18.991Z,8
2023-02-19T12:16:24.134Z,12.2
2023-02-19T12:18:26.002Z,14.5
2023-02-19T12:20:29.139Z,5.7
2023-02-19T12:22:29.916Z,6.7
2023-02-19T12:24:31.876Z,6.4
2023-02-19T12:30:40.856Z,12.7
2023-02-19T12:32:42.793Z,8.7
2023-02-19T12:34:44.759Z,12.5
2023-02-19T12:35:47.271Z,12.7
2023-02-19T12:37:49.256Z,11.4
2023-02-19T12:41:53.200Z,8.3
2023-02-19T12:43:58.202Z,8.9
2023-02-19T12:46:00.216Z,9.3
2023-02-19T12:48:02.160Z,6.9
2023-02-19T12:50:05.666Z,8.3
2023-02-19T12:52:07.573Z,11.1
2023-02-19T12:54:09.597Z,10.6
2023-02-19T12:56:11.769Z,13.2
2023-02-19T13:00:18.539Z,13.1
2023-02-19T13:02:20.544Z,13.7
2023-02-19T13:04:22.456Z,7
2023-02-19T13:06:24.444Z,10.1
2023-02-19T13:08:26.427Z,14.7
2023-02-19T13:10:28.378Z,24.3
2023-02-19T13:12:33.410Z,8.8
2023-02-19T13:14:35.375Z,7.2
2023-02-19T13:16:37.420Z,10
2023-02-19T13:18:39.310Z,7
2023-02-19T13:20:41.273Z,9
2023-02-19T13:22:43.240Z,21.2
2023-02-19T13:24:45.215Z,7.5
2023-02-19T13:26:50.252Z,14.5
2023-02-19T13:28:52.203Z,8.8
2023-02-19T13:30:54.389Z,9
2023-02-19T13:33:58.654Z,6.3
2023-02-19T13:36:00.631Z,9.9
2023-02-19T13:38:02.798Z,13
2023-02-19T13:40:07.604Z,9.7
2023-02-19T13:42:09.554Z,9.3
2023-02-19T13:44:11.533Z,8.6
2023-02-19T13:46:13.571Z,8.5
2023-02-19T13:48:15.469Z,6.7
2023-02-19T13:50:17.439Z,7
2023-02-19T13:52:19.404Z,6.5
2023-02-19T13:54:24.426Z,9.7
2023-02-19T13:58:28.390Z,6.1
2023-02-19T14:00:30.321Z,6.2
2023-02-19T14:02:32.356Z,5.5
2023-02-19T14:10:43.214Z,7.6
2023-02-19T14:12:45.167Z,3.1
2023-02-19T14:22:58.054Z,5.1
2023-02-19T14:25:00.018Z,17
2023-02-19T14:27:01.990Z,4.4
2023-02-19T14:28:04.504Z,3.4
2023-02-19T14:30:06.495Z,6.3
2023-02-19T14:32:08.453Z,2.4
2023-02-19T14:34:10.398Z,2.6
2023-02-19T14:36:15.431Z,2
2023-02-19T14:38:17.372Z,3.4
2023-02-19T14:40:19.342Z,6.5
2023-02-19T14:42:21.321Z,4.2
2023-02-19T14:44:23.303Z,6.3
2023-02-19T14:46:25.314Z,4.1
2023-02-19T14:48:27.224Z,3.2
2023-02-19T14:50:32.273Z,2.9
2023-02-19T14:52:34.225Z,2.1
2023-02-19T14:54:36.203Z,3.8
2023-02-19T14:56:38.155Z,2.7
2023-02-19T14:58:40.148Z,7.9
2023-02-19T15:00:42.112Z,2.2
2023-02-19T15:02:44.095Z,2.7
2023-02-19T15:04:49.133Z,3.3
2023-02-19T15:14:58.923Z,2.7
2023-02-19T15:21:07.902Z,1.7
2023-02-19T15:23:09.897Z,3.2
2023-02-19T15:25:30.441Z,3.1
2023-02-19T15:31:39.575Z,4.2
2023-02-19T15:35:43.387Z,2.7
2023-02-19T15:37:45.314Z,3.6
2023-02-19T15:41:49.263Z,2.9
2023-02-19T15:45:56.263Z,5.5
2023-02-19T15:52:02.149Z,2.3
2023-02-19T15:56:06.158Z,3.8
2023-02-19T15:58:08.053Z,5.7
2023-02-19T16:00:13.126Z,3.5
2023-02-19T16:02:15.053Z,16.3
2023-02-19T16:08:20.963Z,6.6
2023-02-19T16:10:22.935Z,4.5
2023-02-19T16:12:24.898Z,4.8
2023-02-19T16:14:29.928Z,3.2
2023-02-19T16:16:32.669Z,7.2
2023-02-19T16:19:37.102Z,5.7
2023-02-19T16:21:39.094Z,3.3
2023-02-19T16:23:41.058Z,3.9
2023-02-19T16:25:43.004Z,2.6
2023-02-19T16:27:48.039Z,2.8
2023-02-19T16:29:50.008Z,5
2023-02-19T16:31:52.469Z,4.5
2023-02-19T16:35:55.919Z,3.3
2023-02-19T16:37:57.897Z,2.7
2023-02-19T16:42:05.616Z,3.9
2023-02-19T16:44:07.573Z,2.8
2023-02-19T16:46:09.600Z,6.7
2023-02-19T16:48:11.516Z,4.2
2023-02-19T16:50:13.486Z,7.1
2023-02-19T17:02:28.327Z,7.7
2023-02-19T17:04:30.282Z,8
2023-02-19T17:08:34.365Z,11.4
2023-02-19T17:10:39.254Z,4.3
2023-02-19T17:12:41.236Z,4.9
2023-02-19T17:14:43.179Z,3.3
2023-02-19T17:17:47.660Z,5.8
2023-02-19T17:19:49.610Z,11.3
2023-02-19T17:21:51.590Z,4.7
2023-02-19T17:25:58.583Z,3.9
2023-02-19T17:28:00.537Z,6
2023-02-19T17:32:04.517Z,5.4
2023-02-19T17:34:06.426Z,5.1
2023-02-19T17:36:08.395Z,6.5
2023-02-19T17:44:19.317Z,7.1
2023-02-19T17:52:30.240Z,8.1
2023-02-19T17:54:32.194Z,8.5
2023-02-19T17:56:34.160Z,6.9
2023-02-19T17:58:36.143Z,9
2023-02-19T18:00:38.098Z,12.3
2023-02-19T18:02:40.059Z,11.3
2023-02-19T18:04:42.008Z,9.3
2023-02-19T18:06:47.028Z,7.3
2023-02-19T18:08:48.984Z,6.1
2023-02-19T18:10:50.956Z,6
2023-02-19T18:11:53.467Z,5
2023-02-19T18:13:55.431Z,5
2023-02-19T18:15:57.408Z,4.6
2023-02-19T18:17:59.345Z,5.8
2023-02-19T18:20:04.373Z,7.5
2023-02-19T18:22:06.698Z,6
2023-02-19T18:24:08.311Z,8
2023-02-19T18:26:10.344Z,6
2023-02-19T18:28:12.248Z,6.5
2023-02-19T18:34:21.192Z,6.1
2023-02-19T18:38:25.142Z,8.9
2023-02-19T18:42:30.626Z,5.4
2023-02-19T18:48:39.556Z,6.4
2023-02-19T18:50:41.519Z,8.7
2023-02-19T18:54:45.544Z,18.7
2023-02-19T18:56:47.371Z,14.2
2023-02-19T18:58:50.343Z,10.6
2023-02-19T19:00:51.308Z,27.2
2023-02-19T19:02:56.322Z,16.7
2023-02-19T19:04:58.410Z,9.7
2023-02-19T19:07:00.246Z,12.6
2023-02-19T19:19:36.100Z,15.6
2023-02-19T19:21:38.027Z,11.6
2023-02-19T19:23:39.993Z,11
2023-02-19T19:29:48.932Z,13.6
2023-02-19T19:31:51.209Z,19.1
2023-02-19T19:33:52.849Z,10.7
2023-02-19T19:39:58.723Z,11.5
2023-02-19T19:46:07.708Z,10.3
2023-02-19T19:48:09.612Z,9.2
2023-02-19T19:50:11.569Z,8.8
2023-02-19T19:56:17.552Z,10.9
2023-02-19T20:00:24.409Z,15
2023-02-19T20:02:26.372Z,13.9
2023-02-19T20:03:28.852Z,19.6
2023-02-19T20:07:32.747Z,11.1
2023-02-19T20:11:39.701Z,11.6
2023-02-19T20:15:43.632Z,14.2
2023-02-19T20:17:45.549Z,12.6
2023-02-19T20:21:49.420Z,13.5
2023-02-19T20:25:56.379Z,11.1
2023-02-19T20:27:58.334Z,11.7
2023-02-19T20:30:00.280Z,9.9
2023-02-19T20:32:02.333Z,15.3
2023-02-19T20:34:04.151Z,9.3
2023-02-19T20:36:06.107Z,11.9
2023-02-19T20:38:08.052Z,10.4
2023-02-19T20:40:13.032Z,11.4
2023-02-19T20:42:16.602Z,16.5
2023-02-19T20:46:18.880Z,12.1
2023-02-19T20:48:20.779Z,16.4
2023-02-19T20:50:22.715Z,14.8
2023-02-19T20:52:24.662Z,8.4
2023-02-19T20:54:29.658Z,11.1
2023-02-19T20:56:31.575Z,11.4
2023-02-19T20:58:33.616Z,13.9
2023-02-19T21:01:38.062Z,9.2
2023-02-19T21:05:42.482Z,16.3
2023-02-19T21:09:48.836Z,8.3
2023-02-19T21:11:50.731Z,7.8
2023-02-19T21:28:09.296Z,13.2
2023-02-19T21:32:13.310Z,23.4
2023-02-19T21:36:20.089Z,12
2023-02-19T21:40:23.933Z,9
2023-02-19T21:42:25.974Z,25.8
2023-02-19T21:44:27.902Z,14.4
2023-02-19T21:48:31.735Z,18.7
2023-02-19T21:50:36.717Z,23.2
2023-02-19T21:52:38.673Z,19.9
2023-02-19T21:54:40.624Z,18.6
2023-02-19T21:55:56.404Z,19
2023-02-19T22:01:48.902Z,18.7
2023-02-19T22:07:57.736Z,23.2
2023-02-19T22:09:59.673Z,24
2023-02-19T22:12:01.631Z,23.1
2023-02-19T22:14:03.637Z,21.4
2023-02-19T22:16:05.597Z,24.7
2023-02-19T22:18:10.658Z,28.9
2023-02-19T22:20:12.698Z,23.6
2023-02-19T22:22:14.734Z,23.4
2023-02-19T22:24:16.670Z,27.4
2023-02-19T22:26:18.705Z,26.6
2023-02-19T22:28:20.723Z,23
2023-02-19T22:30:22.794Z,17.1
2023-02-19T22:32:27.827Z,22.1
2023-02-19T22:34:29.635Z,34.4
2023-02-19T22:36:31.565Z,16.4
2023-02-19T22:38:33.584Z,19.7
2023-02-19T22:40:35.518Z,19.5
2023-02-19T22:42:37.439Z,22.9
2023-02-19T22:44:39.483Z,21.7
2023-02-19T22:46:44.568Z,18.7
2023-02-19T22:48:46.511Z,20.4
2023-02-19T22:50:48.418Z,19
2023-02-19T22:53:05.252Z,25.5
2023-02-19T22:55:07.282Z,18.6
2023-02-19T22:57:09.506Z,13.5
2023-02-19T23:01:16.189Z,25.8
2023-02-19T23:03:18.033Z,20.8
2023-02-19T23:05:19.958Z,30.7
2023-02-19T23:07:22.013Z,23.5
2023-02-19T23:09:24.038Z,30.8
2023-02-19T23:11:25.984Z,21.3
2023-02-19T23:13:31.047Z,21.8
2023-02-19T23:15:32.976Z,17.2
2023-02-19T23:17:34.892Z,20
2023-02-19T23:19:36.848Z,14.3
2023-02-19T23:21:38.778Z,19.8
2023-02-19T23:23:40.708Z,16.4
2023-02-19T23:25:42.646Z,22.1
2023-02-19T23:27:47.613Z,23.1
2023-02-19T23:29:49.544Z,15.4
2023-02-19T23:33:53.398Z,19.7
2023-02-19T23:35:55.348Z,17.6
2023-02-19T23:37:57.285Z,20.3
2023-02-19T23:42:04.221Z,20.6
2023-02-19T23:44:06.148Z,23.1
2023-02-19T23:46:08.176Z,16.9
2023-02-19T23:47:10.553Z,18.9
2023-02-19T23:49:12.819Z,16
2023-02-19T23:51:14.440Z,18.7
2023-02-19T23:53:16.370Z,16.7
2023-02-19T23:55:21.354Z,18.6
2023-02-19T23:57:23.323Z,20
2023-02-19T23:59:25.249Z,26.1
